KMIW/MIW METAR and TAF weather

Enter ICAO airport designator
Station Type Date Time Source
KMIW METAR 2020/07/11 01:53 UTC NOAA

KMIW 110153Z AUTO 00000KT 10SM CLR 26/22 A2995 RMK AO2 SLP135 T02560222


Station Type Date Time Source
KMIW Decoded METAR 2020/07/11 01:53 UTC NOAA

MARSHALLTOWN MUNICIPAL AIRPORT , IA, United States (KMIW) 42-07N 92-55W 296M
Jul 10, 2020 - 09:53 PM EDT / 2020.07.11 0153 UTC
Wind: Calm:0
Visibility: 10 mile(s):0
Sky conditions: clear
Temperature: 78.1 F (25.6 C)
Dew Point: 72.0 F (22.2 C)
Relative Humidity: 81%
Pressure (altimeter): 29.95 in. Hg (1014 hPa)
ob: KMIW 110153Z AUTO 00000KT 10SM CLR 26/22 A2995 RMK AO2 SLP135 T02560222
cycle: 2

Station Type Date Time Source
KMIW TAF UTC NOAA

Error!

Example: see airport list